Aeroporto :
LOGIN :

Iscrizione | Disclaimer

   EN    FR    IT 

 










Sommario :    VFR   VFR Marginale   IFR   IFR Intensivo   IFR Molto Intensivo
Visibilità : 
Base nubi : 
>= 8 km
>= 3000ft
5 / 8 km
1000 / 3000 ft
1500m / 5 km
500 / 1000 ft
800 / 1500m
200 / 500 ft
< 800m
< 200 ft
Simboli :   Temporali  Nebbia  Neve Forte  Precipitazioni Forti  Vento > 20 kt
SIGMETs :   Varie  Temporali  Ghiacco  Turbolenza  Onda orograficha  Ceneri Vulcaniche






- Altitudine del aeroporto : 1300 ft
- Codice IATA : LIG


LFBL - Limoges

ULTIMO METAR :
  • 201500Z AUTO 20008KT 9999 BKN017 OVC024 15/13 Q1005 TEMPO 4000 -RADZ BKN003

METARs OBSOLETI :
  • 201430Z AUTO 18006KT 9999 BKN018 OVC025 15/13 Q1004 TEMPO 4000 -RADZ BKN003
  • 201400Z AUTO 18006KT 9999 FEW015 BKN022 OVC027 15/13 Q1003 TEMPO 4000 -RADZ BKN003
  • 201330Z AUTO 19010KT 9999 BKN015 BKN029 BKN086 16/13 Q1004 TEMPO 4000 -RADZ BKN003
  • 201300Z AUTO 19008KT 9999 -DZ FEW019 SCT027 BKN036 15/13 Q1004 TEMPO BKN005
  • 201230Z AUTO 22006KT 190V260 9999 -RA SCT015/// BKN025/// BKN035/// ///TCU 15/14 Q1004 TEMPO BKN005

TAF TAF LFBL
Valido dal 20 a 12 ore il 21 a 12 ore UTC


201100Z 2012/2112 17007KT 9999 BKN030
PROB30
TEMPO 2012/2014 -RA BKN007
BECMG 2014/2015 BKN012
TEMPO 2014/2109 BKN005
PROB40
TEMPO 2015/2101 4000 -RADZ BKN003
BECMG 2109/2111 BKN017
ATIS : +33 5 55 48 40 37



MetMap, La meteo Aeronautica in un colpo d'occhio ! - Copyright ORBIFLY Dicembre 2007 - Disclaimer

ORBIFLY MET'MAP TEAM :

Programmazione e sviluppo : Alexandra Zaïnal
Concezione e sviluppo : Baudouin d'Aumeries
Co-Programmazione e sviluppo : Marc-Olivier Méhu
Supporto tecnico e logistico : Manuel Goepfert
Aiuto per la traduzione : Arnaldo La Scala

Contatto : metmap@orbifly.com




FONTI E CREDITI :

   NOAA